This is the latest recevied weather packets stored in our database for station/object PU2UHW-13. If no packets are shown the sender has not sent any weather packets the latest 1 day(s).
| Time | Temp. | Humidity | Pressure | Rain* | Wind** | Luminosity | Snow |
|---|---|---|---|---|---|---|---|
| 1778096335 | 25° C | 57% | 1018.1 hPa | - | - | - | - |
| 1778094715 | 26.11° C | 54% | 1017.8 hPa | - | - | - | - |
| 1778094535 | 25.56° C | 55% | 1018.1 hPa | - | - | - | - |
| 1778094355 | 25.56° C | 55% | 1018 hPa | - | - | - | - |
| 1778092195 | 25° C | 59% | 1018.4 hPa | - | - | - | - |
| 1778090935 | 24.44° C | 58% | 1018.9 hPa | - | - | - | - |
| 1778090395 | 25° C | 58% | 1018.7 hPa | - | - | - | - |
| 1778090215 | 25° C | 56% | 1018.7 hPa | - | - | - | - |
| 1778089135 | 25.56° C | 54% | 1018.5 hPa | - | - | - | - |
| 1778088595 | 25.56° C | 55% | 1018.9 hPa | - | - | - | - |
| 1778088415 | 25.56° C | 56% | 1019 hPa | - | - | - | - |
| 1778085354 | 24.44° C | 58% | 1020 hPa | - | - | - | - |
| 1778084994 | 24.44° C | 57% | 1019.9 hPa | - | - | - | - |
| 1778084634 | 24.44° C | 58% | 1020 hPa | - | - | - | - |
| 1778084455 | 23.89° C | 57% | 1020.1 hPa | - | - | - | - |
| 1778084095 | 23.33° C | 61% | 1020.5 hPa | - | - | - | - |
| 1778082835 | 23.89° C | 60% | 1020.7 hPa | - | - | - | - |
| 1778081214 | 23.89° C | 61% | 1021.2 hPa | - | - | - | - |
| 1778081037 | 23.89° C | 61% | 1021.3 hPa | - | - | - | - |
| 1778079955 | 23.89° C | 62% | 1021.6 hPa | - | - | - | - |
| 1778076895 | 22.22° C | 69% | 1023.2 hPa | - | - | - | - |
| 1778075634 | 21.11° C | 74% | 1023.8 hPa | - | - | - | - |
| 1778073115 | 20° C | 75% | 1024.9 hPa | - | - | - | - |
| 1778072574 | 19.44° C | 75% | 1025 hPa | - | - | - | - |
| 1778071135 | 18.33° C | 77% | 1025.5 hPa | - | - | - | - |
* Rain since midnight (hover to see other rain measurements)
** Current wind speed in m/s (hover to see current wind gust speed)